Time,TemperatureF,DewpointF,PressureIn,WindDirection,WindDirectionDegrees,WindSpeedMPH,WindSpeedGustMPH,Humidity,HourlyPrecipIn,Conditions,Clouds,dailyrainin,SoftwareType,DateUTC
2013-04-30 00:04:00,29.8,21.8,29.85,SSW,203,0.0,6.0,72,0.00,,,0.00,WUHU216HW,2013-04-30 06:04:00,
2013-04-30 00:09:00,29.8,21.8,29.85,WNW,293,0.0,2.6,72,0.00,,,0.00,WUHU216HW,2013-04-30 06:09:00,
2013-04-30 00:14:00,29.4,21.5,29.85,SW,225,2.6,3.3,72,0.00,,,0.00,WUHU216HW,2013-04-30 06:14:00,
2013-04-30 00:19:00,29.1,21.2,29.84,SW,225,2.9,3.3,72,0.00,,,0.00,WUHU216HW,2013-04-30 06:19:00,
2013-04-30 00:24:00,28.9,21.3,29.85,SW,225,2.9,5.3,73,0.00,,,0.00,WUHU216HW,2013-04-30 06:24:00,
2013-04-30 00:29:00,28.5,21.0,29.85,SW,225,0.0,6.2,73,0.00,,,0.00,WUHU216HW,2013-04-30 06:29:00,
2013-04-30 00:34:00,28.5,21.0,29.85,SW,225,1.1,6.2,73,0.00,,,0.00,WUHU216HW,2013-04-30 06:34:00,
2013-04-30 00:39:00,28.2,20.6,29.85,WSW,248,3.3,4.6,73,0.00,,,0.00,WUHU216HW,2013-04-30 06:39:00,
2013-04-30 00:44:00,28.4,20.8,29.85,SW,225,0.0,5.1,73,0.00,,,0.00,WUHU216HW,2013-04-30 06:44:00,
2013-04-30 00:49:00,28.2,20.6,29.85,WSW,248,1.3,5.1,73,0.00,,,0.00,WUHU216HW,2013-04-30 06:49:00,
2013-04-30 00:54:00,28.2,20.6,29.85,SW,225,3.5,3.5,73,0.00,,,0.00,WUHU216HW,2013-04-30 06:54:00,
2013-04-30 00:59:00,28.0,20.4,29.85,SW,225,0.0,3.8,73,0.00,,,0.00,WUHU216HW,2013-04-30 06:59:00,
2013-04-30 01:05:00,28.0,20.4,29.85,SW,225,0.0,3.8,73,0.00,,,0.00,WUHU216HW,2013-04-30 07:05:00,
2013-04-30 01:10:00,27.6,20.1,29.85,SW,225,0.0,0.0,73,0.00,,,0.00,WUHU216HW,2013-04-30 07:10:00,
2013-04-30 01:15:00,27.5,19.9,29.86,SW,225,0.0,0.0,73,0.00,,,0.00,WUHU216HW,2013-04-30 07:15:00,
2013-04-30 01:20:00,27.1,19.5,29.86,SSW,203,4.2,4.2,73,0.00,,,0.00,WUHU216HW,2013-04-30 07:20:00,
2013-04-30 01:25:00,27.1,19.9,29.86,SW,225,2.6,4.2,74,0.00,,,0.00,WUHU216HW,2013-04-30 07:25:00,
2013-04-30 01:31:00,26.9,20.0,29.86,SSW,203,2.0,4.9,75,0.00,,,0.00,WUHU216HW,2013-04-30 07:31:00,
2013-04-30 01:36:00,27.1,20.2,29.86,SW,225,2.4,5.5,75,0.00,,,0.00,WUHU216HW,2013-04-30 07:36:00,
2013-04-30 01:41:00,27.1,20.5,29.86,SW,225,2.4,5.5,76,0.00,,,0.00,WUHU216HW,2013-04-30 07:41:00,
2013-04-30 01:46:00,27.3,20.6,29.86,SW,225,3.1,5.3,76,0.00,,,0.00,WUHU216HW,2013-04-30 07:46:00,
2013-04-30 01:51:00,27.6,21.0,29.86,SW,225,2.6,6.9,76,0.00,,,0.00,WUHU216HW,2013-04-30 07:51:00,
2013-04-30 01:56:00,27.6,21.0,29.86,SW,225,5.3,6.9,76,0.00,,,0.00,WUHU216HW,2013-04-30 07:56:00,
2013-04-30 02:01:00,28.0,21.1,29.87,SW,225,2.9,5.3,75,0.00,,,0.00,WUHU216HW,2013-04-30 08:01:00,
2013-04-30 02:06:00,28.0,21.1,29.87,SW,225,2.9,5.8,75,0.00,,,0.00,WUHU216HW,2013-04-30 08:06:00,
2013-04-30 02:11:00,28.2,21.2,29.87,SW,225,2.2,5.8,75,0.00,,,0.00,WUHU216HW,2013-04-30 08:11:00,
2013-04-30 02:16:00,28.2,21.2,29.86,SW,225,4.0,5.5,75,0.00,,,0.00,WUHU216HW,2013-04-30 08:16:00,
2013-04-30 02:22:00,28.2,20.9,29.86,SW,225,2.9,5.1,74,0.00,,,0.00,WUHU216HW,2013-04-30 08:22:00,
2013-04-30 02:27:00,28.2,20.9,29.86,SW,225,3.3,4.2,74,0.00,,,0.00,WUHU216HW,2013-04-30 08:27:00,
2013-04-30 02:32:00,28.0,20.8,29.87,SW,225,2.9,4.2,74,0.00,,,0.00,WUHU216HW,2013-04-30 08:32:00,
2013-04-30 02:37:00,28.0,20.8,29.87,SW,225,2.2,3.1,74,0.00,,,0.00,WUHU216HW,2013-04-30 08:37:00,
2013-04-30 02:42:00,27.6,20.4,29.87,SW,225,2.2,3.1,74,0.00,,,0.00,WUHU216HW,2013-04-30 08:42:00,
2013-04-30 02:47:00,27.5,20.2,29.87,SW,225,2.6,2.9,74,0.00,,,0.00,WUHU216HW,2013-04-30 08:47:00,
2013-04-30 02:52:00,27.3,20.0,29.87,SW,225,0.0,2.9,74,0.00,,,0.00,WUHU216HW,2013-04-30 08:52:00,
2013-04-30 02:57:00,27.1,20.2,29.87,SW,225,1.1,2.4,75,0.00,,,0.00,WUHU216HW,2013-04-30 08:57:00,
2013-04-30 03:02:00,26.7,19.8,29.87,SW,225,0.0,2.4,75,0.00,,,0.00,WUHU216HW,2013-04-30 09:02:00,
2013-04-30 03:07:00,26.6,19.6,29.88,SW,225,1.7,2.9,75,0.00,,,0.00,WUHU216HW,2013-04-30 09:07:00,
2013-04-30 03:12:00,26.4,19.7,29.88,SW,225,0.0,2.9,76,0.00,,,0.00,WUHU216HW,2013-04-30 09:12:00,
2013-04-30 03:17:00,26.4,19.7,29.88,SW,225,0.0,2.6,76,0.00,,,0.00,WUHU216HW,2013-04-30 09:17:00,
2013-04-30 03:22:00,26.4,19.7,29.88,SW,225,1.5,2.2,76,0.00,,,0.00,WUHU216HW,2013-04-30 09:22:00,
2013-04-30 03:28:00,26.4,19.7,29.88,SW,225,2.9,3.3,76,0.00,,,0.00,WUHU216HW,2013-04-30 09:28:00,
2013-04-30 03:33:00,26.2,19.6,29.88,SW,225,2.6,4.0,76,0.00,,,0.00,WUHU216HW,2013-04-30 09:33:00,
2013-04-30 03:38:00,26.2,19.6,29.88,SSW,203,4.0,4.0,76,0.00,,,0.00,WUHU216HW,2013-04-30 09:38:00,
2013-04-30 03:43:00,26.2,19.9,29.88,SW,225,2.2,6.2,77,0.00,,,0.00,WUHU216HW,2013-04-30 09:43:00,
2013-04-30 03:48:00,26.2,19.9,29.88,SSW,203,1.7,6.2,77,0.00,,,0.00,WUHU216HW,2013-04-30 09:48:00,
2013-04-30 03:53:00,26.2,19.9,29.88,SW,225,3.8,4.6,77,0.00,,,0.00,WUHU216HW,2013-04-30 09:53:00,
2013-04-30 03:58:00,26.2,19.9,29.88,SSW,203,3.1,4.9,77,0.00,,,0.00,WUHU216HW,2013-04-30 09:58:00,
2013-04-30 04:03:00,26.2,19.9,29.88,SSW,203,0.0,4.9,77,0.00,,,0.00,WUHU216HW,2013-04-30 10:03:00,
2013-04-30 04:08:00,26.0,19.7,29.88,SSW,203,0.0,0.0,77,0.00,,,0.00,WUHU216HW,2013-04-30 10:08:00,
2013-04-30 04:13:00,25.8,19.4,29.89,SSW,203,0.0,0.0,77,0.00,,,0.00,WUHU216HW,2013-04-30 10:13:00,
2013-04-30 04:18:00,25.5,19.4,29.89,SSW,203,0.0,1.1,77,0.00,,,0.00,WUHU216HW,2013-04-30 10:18:00,
2013-04-30 04:23:00,25.5,19.2,29.89,SSW,203,0.0,1.1,77,0.00,,,0.00,WUHU216HW,2013-04-30 10:23:00,
2013-04-30 04:28:00,25.5,19.5,29.89,SSW,203,0.0,0.0,78,0.00,,,0.00,WUHU216HW,2013-04-30 10:28:00,
2013-04-30 04:34:00,25.5,19.5,29.89,SSW,203,0.0,0.0,78,0.00,,,0.00,WUHU216HW,2013-04-30 10:34:00,
2013-04-30 04:39:00,25.5,19.5,29.90,SSW,203,0.0,0.0,78,0.00,,,0.00,WUHU216HW,2013-04-30 10:39:00,
2013-04-30 04:44:00,25.7,20.0,29.89,East,90,0.0,1.3,79,0.00,,,0.00,WUHU216HW,2013-04-30 10:44:00,
2013-04-30 04:49:00,25.8,20.2,29.89,East,90,0.0,1.3,79,0.00,,,0.00,WUHU216HW,2013-04-30 10:49:00,
2013-04-30 04:54:00,26.0,20.3,29.89,SSE,158,3.3,3.3,79,0.00,,,0.00,WUHU216HW,2013-04-30 10:54:00,
2013-04-30 04:59:00,26.2,20.5,29.89,South,180,1.7,3.5,79,0.00,,,0.00,WUHU216HW,2013-04-30 10:59:00,
2013-04-30 05:04:00,26.4,20.7,29.90,SSW,203,2.0,3.5,79,0.00,,,0.00,WUHU216HW,2013-04-30 11:04:00,
2013-04-30 05:09:00,26.4,20.7,29.90,SSW,203,0.0,2.9,79,0.00,,,0.00,WUHU216HW,2013-04-30 11:09:00,
2013-04-30 05:14:00,26.4,20.4,29.90,SSW,203,0.0,2.4,78,0.00,,,0.00,WUHU216HW,2013-04-30 11:14:00,
2013-04-30 05:19:00,26.2,20.2,29.90,SSW,203,0.0,2.9,78,0.00,,,0.00,WUHU216HW,2013-04-30 11:19:00,
2013-04-30 05:24:00,26.2,20.2,29.90,SSW,203,0.0,2.9,78,0.00,,,0.00,WUHU216HW,2013-04-30 11:24:00,
2013-04-30 05:29:00,26.2,19.9,29.90,SSW,203,5.3,5.3,77,0.00,,,0.00,WUHU216HW,2013-04-30 11:29:00,
2013-04-30 05:34:00,26.0,19.7,29.91,SSW,203,4.4,5.3,77,0.00,,,0.00,WUHU216HW,2013-04-30 11:34:00,
2013-04-30 05:39:00,25.8,19.5,29.90,SSW,203,2.2,5.5,77,0.00,,,0.00,WUHU216HW,2013-04-30 11:39:00,
2013-04-30 05:44:00,26.0,19.7,29.90,SW,225,2.6,6.2,77,0.00,,,0.00,WUHU216HW,2013-04-30 11:44:00,
2013-04-30 05:49:00,26.2,19.9,29.91,SW,225,5.3,6.2,77,0.00,,,0.00,WUHU216HW,2013-04-30 11:49:00,
2013-04-30 05:54:00,26.2,19.9,29.90,SW,225,3.8,5.3,77,0.00,,,0.00,WUHU216HW,2013-04-30 11:54:00,
2013-04-30 05:59:00,26.2,19.9,29.91,SW,225,3.1,5.3,77,0.00,,,0.00,WUHU216HW,2013-04-30 11:59:00,
2013-04-30 06:05:00,26.2,19.9,29.91,SW,225,2.6,5.3,77,0.00,,,0.00,WUHU216HW,2013-04-30 12:05:00,
2013-04-30 06:10:00,26.4,20.1,29.91,SW,225,3.1,3.8,77,0.00,,,0.00,WUHU216HW,2013-04-30 12:10:00,
2013-04-30 06:15:00,26.4,19.7,29.91,SW,225,3.8,3.8,76,0.00,,,0.00,WUHU216HW,2013-04-30 12:15:00,
2013-04-30 06:20:00,26.4,19.7,29.91,SW,225,3.8,4.9,76,0.00,,,0.00,WUHU216HW,2013-04-30 12:20:00,
2013-04-30 06:25:00,26.4,19.7,29.91,SW,225,2.9,4.9,76,0.00,,,0.00,WUHU216HW,2013-04-30 12:25:00,
2013-04-30 06:30:00,26.2,19.6,29.91,SW,225,3.8,4.0,76,0.00,,,0.00,WUHU216HW,2013-04-30 12:30:00,
2013-04-30 06:35:00,26.4,19.7,29.92,SSW,203,5.3,5.3,76,0.00,,,0.00,WUHU216HW,2013-04-30 12:35:00,
2013-04-30 06:40:00,26.4,19.7,29.92,SW,225,4.0,5.3,76,0.00,,,0.00,WUHU216HW,2013-04-30 12:40:00,
2013-04-30 06:45:00,26.4,19.7,29.92,SW,225,3.1,4.6,76,0.00,,,0.00,WUHU216HW,2013-04-30 12:45:00,
2013-04-30 06:50:00,26.4,19.7,29.92,SW,225,3.3,4.6,76,0.00,,,0.00,WUHU216HW,2013-04-30 12:50:00,
2013-04-30 06:55:00,26.4,19.3,29.92,SW,225,0.0,3.3,75,0.00,,,0.00,WUHU216HW,2013-04-30 12:55:00,
2013-04-30 07:01:00,25.8,18.6,29.92,SW,225,0.0,2.4,74,0.00,,,0.00,WUHU216HW,2013-04-30 13:01:00,
2013-04-30 07:06:00,25.3,17.9,29.93,SW,225,2.9,2.9,74,0.00,,,0.00,WUHU216HW,2013-04-30 13:06:00,
2013-04-30 07:11:00,24.6,17.7,29.93,SW,225,0.0,2.9,75,0.00,,,0.00,WUHU216HW,2013-04-30 13:11:00,
2013-04-30 07:16:00,24.4,17.6,29.93,SW,225,0.0,2.6,75,0.00,,,0.00,WUHU216HW,2013-04-30 13:16:00,
2013-04-30 07:21:00,24.0,17.5,29.93,SW,225,0.0,0.0,76,0.00,,,0.00,WUHU216HW,2013-04-30 13:21:00,
2013-04-30 07:26:00,23.9,17.4,29.93,SW,225,0.0,0.0,76,0.00,,,0.00,WUHU216HW,2013-04-30 13:26:00,
2013-04-30 07:31:00,23.7,17.2,29.93,SW,225,0.0,0.0,76,0.00,,,0.00,WUHU216HW,2013-04-30 13:31:00,
2013-04-30 07:36:00,23.7,17.5,29.93,SW,225,0.0,0.0,77,0.00,,,0.00,WUHU216HW,2013-04-30 13:36:00,
2013-04-30 07:41:00,23.5,17.3,29.93,SW,225,0.0,0.0,77,0.00,,,0.00,WUHU216HW,2013-04-30 13:41:00,
2013-04-30 07:47:00,23.7,17.8,29.94,SW,225,1.3,2.4,78,0.00,,,0.00,WUHU216HW,2013-04-30 13:47:00,
2013-04-30 07:52:00,23.7,18.0,29.94,SW,225,0.0,2.4,78,0.00,,,0.00,WUHU216HW,2013-04-30 13:52:00,
2013-04-30 07:57:00,24.0,18.5,29.94,SW,225,0.0,1.3,79,0.00,,,0.00,WUHU216HW,2013-04-30 13:57:00,
2013-04-30 08:02:00,24.4,19.2,29.94,SW,225,0.0,0.0,80,0.00,,,0.00,WUHU216HW,2013-04-30 14:02:00,
2013-04-30 08:07:00,24.6,19.6,29.94,SW,225,0.0,0.0,81,0.00,,,0.00,WUHU216HW,2013-04-30 14:07:00,
2013-04-30 08:12:00,25.3,20.3,29.95,SW,225,0.0,0.0,81,0.00,,,0.00,WUHU216HW,2013-04-30 14:12:00,
2013-04-30 08:17:00,25.8,20.5,29.95,SW,225,0.0,1.7,80,0.00,,,0.00,WUHU216HW,2013-04-30 14:17:00,
2013-04-30 08:22:00,26.6,21.2,29.95,SW,225,0.0,1.7,80,0.00,,,0.00,WUHU216HW,2013-04-30 14:22:00,
2013-04-30 08:27:00,27.3,21.6,29.95,SW,225,0.0,4.0,79,0.00,,,0.00,WUHU216HW,2013-04-30 14:27:00,
2013-04-30 08:33:00,28.2,22.5,29.95,SW,225,0.0,4.0,79,0.00,,,0.00,WUHU216HW,2013-04-30 14:33:00,
2013-04-30 08:38:00,28.9,22.9,29.95,North,0,0.0,3.5,78,0.00,,,0.00,WUHU216HW,2013-04-30 14:38:00,
2013-04-30 08:43:00,29.8,23.4,29.96,SW,225,0.0,3.5,77,0.00,,,0.00,WUHU216HW,2013-04-30 14:43:00,
2013-04-30 08:48:00,30.3,23.6,29.96,NW,315,2.2,4.0,76,0.00,,,0.00,WUHU216HW,2013-04-30 14:48:00,
2013-04-30 08:53:00,31.1,24.0,29.96,WNW,293,2.6,4.0,75,0.00,,,0.00,WUHU216HW,2013-04-30 14:53:00,
2013-04-30 08:58:00,32.1,24.8,29.96,West,270,2.0,5.5,74,0.00,,,0.00,WUHU216HW,2013-04-30 14:58:00,
2013-04-30 09:03:00,33.0,24.9,29.96,NW,315,3.5,5.5,72,0.00,,,0.00,WUHU216HW,2013-04-30 15:03:00,
2013-04-30 09:08:00,33.6,24.8,29.96,NW,315,3.5,6.4,70,0.00,,,0.00,WUHU216HW,2013-04-30 15:08:00,
2013-04-30 09:13:00,34.3,24.8,29.96,NW,315,0.0,6.4,68,0.00,,,0.00,WUHU216HW,2013-04-30 15:13:00,
2013-04-30 09:18:00,34.7,24.8,29.96,SSW,203,0.0,5.8,67,0.00,,,0.00,WUHU216HW,2013-04-30 15:18:00,
2013-04-30 09:24:00,34.8,24.9,29.96,WNW,293,3.1,5.8,67,0.00,,,0.00,WUHU216HW,2013-04-30 15:24:00,
2013-04-30 09:29:00,35.2,24.6,29.96,NNW,338,1.3,7.8,65,0.00,,,0.00,WUHU216HW,2013-04-30 15:29:00,
2013-04-30 09:34:00,35.4,24.4,29.96,NNW,338,2.9,7.8,64,0.00,,,0.00,WUHU216HW,2013-04-30 15:34:00,
2013-04-30 09:39:00,35.2,23.9,29.96,NW,315,2.4,7.3,63,0.00,,,0.00,WUHU216HW,2013-04-30 15:39:00,
2013-04-30 09:44:00,35.2,23.9,29.96,NW,315,4.0,4.0,63,0.00,,,0.00,WUHU216HW,2013-04-30 15:44:00,
2013-04-30 09:49:00,35.4,24.0,29.96,NNW,338,0.0,4.0,63,0.00,,,0.00,WUHU216HW,2013-04-30 15:49:00,
2013-04-30 09:54:00,36.1,24.3,29.96,WNW,293,4.6,7.8,62,0.00,,,0.00,WUHU216HW,2013-04-30 15:54:00,
2013-04-30 09:59:00,36.6,24.5,29.96,WNW,293,2.0,7.8,61,0.00,,,0.00,WUHU216HW,2013-04-30 15:59:00,
2013-04-30 10:04:00,37.0,24.4,29.96,North,0,0.0,5.3,60,0.00,,,0.00,WUHU216HW,2013-04-30 16:04:00,
2013-04-30 10:09:00,37.5,24.5,29.96,NNW,338,4.9,4.9,59,0.00,,,0.00,WUHU216HW,2013-04-30 16:09:00,
2013-04-30 10:14:00,37.9,24.4,29.96,WNW,293,0.0,4.9,58,0.00,,,0.00,WUHU216HW,2013-04-30 16:14:00,
2013-04-30 10:20:00,38.3,24.3,29.96,West,270,0.0,4.0,57,0.00,,,0.00,WUHU216HW,2013-04-30 16:20:00,
2013-04-30 10:25:00,38.8,24.3,29.96,NNW,338,5.5,5.5,56,0.00,,,0.00,WUHU216HW,2013-04-30 16:25:00,
2013-04-30 10:30:00,39.0,23.6,29.96,WNW,293,1.5,5.5,54,0.00,,,0.00,WUHU216HW,2013-04-30 16:30:00,
2013-04-30 10:35:00,39.7,24.3,29.96,WNW,293,2.9,5.1,54,0.00,,,0.00,WUHU216HW,2013-04-30 16:35:00,
2013-04-30 10:40:00,39.9,24.4,29.96,NW,315,1.3,3.8,54,0.00,,,0.00,WUHU216HW,2013-04-30 16:40:00,
2013-04-30 10:45:00,40.4,24.5,29.96,NW,315,9.1,9.1,53,0.00,,,0.00,WUHU216HW,2013-04-30 16:45:00,
2013-04-30 10:50:00,39.9,23.6,29.96,WNW,293,2.9,9.1,52,0.00,,,0.00,WUHU216HW,2013-04-30 16:50:00,
2013-04-30 10:55:00,39.0,22.8,29.96,NW,315,5.3,8.5,52,0.00,,,0.00,WUHU216HW,2013-04-30 16:55:00,
2013-04-30 11:00:00,38.3,22.5,29.97,NNW,338,8.0,8.5,53,0.00,,,0.00,WUHU216HW,2013-04-30 17:00:00,
2013-04-30 11:05:00,38.1,22.4,29.97,NNW,338,3.8,9.8,53,0.00,,,0.00,WUHU216HW,2013-04-30 17:05:00,
2013-04-30 11:10:00,37.9,21.8,29.97,North,0,8.9,9.8,53,0.00,,,0.00,WUHU216HW,2013-04-30 17:10:00,
2013-04-30 11:16:00,37.9,21.3,29.97,North,0,6.0,8.9,51,0.00,,,0.00,WUHU216HW,2013-04-30 17:16:00,
2013-04-30 11:21:00,37.9,21.8,29.97,NW,315,0.0,8.9,52,0.00,,,0.00,WUHU216HW,2013-04-30 17:21:00,
2013-04-30 11:26:00,38.1,21.9,29.97,NW,315,0.0,4.2,52,0.00,,,0.00,WUHU216HW,2013-04-30 17:26:00,
2013-04-30 11:31:00,38.4,22.3,29.97,NNW,338,8.9,8.9,52,0.00,,,0.00,WUHU216HW,2013-04-30 17:31:00,
2013-04-30 11:36:00,39.3,22.6,29.97,WNW,293,2.6,8.9,51,0.00,,,0.00,WUHU216HW,2013-04-30 17:36:00,
2013-04-30 11:41:00,39.7,22.5,29.97,WNW,293,6.0,6.0,50,0.00,,,0.00,WUHU216HW,2013-04-30 17:41:00,
2013-04-30 11:46:00,39.9,22.7,29.97,NW,315,4.0,8.9,50,0.00,,,0.00,WUHU216HW,2013-04-30 17:46:00,
2013-04-30 11:51:00,39.3,21.7,29.97,NNW,338,0.0,8.9,49,0.00,,,0.00,WUHU216HW,2013-04-30 17:51:00,
2013-04-30 11:57:00,39.0,21.9,29.97,SW,225,0.0,6.7,50,0.00,,,0.00,WUHU216HW,2013-04-30 17:57:00,
2013-04-30 12:02:00,39.0,22.1,29.97,NW,315,2.6,4.4,50,0.00,,,0.00,WUHU216HW,2013-04-30 18:02:00,
2013-04-30 12:07:00,39.5,22.4,29.97,NNW,338,6.9,6.9,50,0.00,,,0.00,WUHU216HW,2013-04-30 18:07:00,
2013-04-30 12:12:00,40.1,22.3,29.97,WNW,293,2.0,9.1,49,0.00,,,0.00,WUHU216HW,2013-04-30 18:12:00,
2013-04-30 12:17:00,40.8,22.5,29.97,WNW,293,4.4,9.1,48,0.00,,,0.00,WUHU216HW,2013-04-30 18:17:00,
2013-04-30 12:22:00,41.7,23.1,29.97,South,180,4.9,8.2,48,0.00,,,0.00,WUHU216HW,2013-04-30 18:22:00,
2013-04-30 12:27:00,42.8,23.9,29.97,North,0,0.0,8.2,47,0.00,,,0.00,WUHU216HW,2013-04-30 18:27:00,
2013-04-30 12:32:00,43.3,23.3,29.98,NNW,338,1.3,7.3,45,0.00,,,0.00,WUHU216HW,2013-04-30 18:32:00,
2013-04-30 12:37:00,42.6,22.6,29.98,NE,45,5.5,7.3,45,0.00,,,0.00,WUHU216HW,2013-04-30 18:37:00,
2013-04-30 12:42:00,41.7,21.6,29.99,NNE,23,8.2,8.2,45,0.00,,,0.00,WUHU216HW,2013-04-30 18:42:00,
2013-04-30 12:47:00,40.4,22.1,29.99,NNW,338,3.3,8.2,48,0.00,,,0.00,WUHU216HW,2013-04-30 18:47:00,
2013-04-30 12:52:00,39.0,21.9,30.00,North,0,9.1,9.3,50,0.00,,,0.00,WUHU216HW,2013-04-30 18:52:00,
2013-04-30 12:58:00,38.1,22.4,30.00,NNW,338,0.0,9.3,53,0.00,,,0.00,WUHU216HW,2013-04-30 18:58:00,
2013-04-30 13:03:00,37.0,22.1,30.01,NNW,338,0.0,3.1,55,0.00,,,0.00,WUHU216HW,2013-04-30 19:03:00,
2013-04-30 13:08:00,35.9,22.2,30.00,NNW,338,0.0,0.0,57,0.00,,,0.00,WUHU216HW,2013-04-30 19:08:00,
2013-04-30 13:13:00,35.0,22.4,30.01,East,90,5.3,5.3,60,0.00,,,0.00,WUHU216HW,2013-04-30 19:13:00,
2013-04-30 13:18:00,34.3,22.8,30.01,East,90,1.3,5.3,63,0.00,,,0.00,WUHU216HW,2013-04-30 19:18:00,
2013-04-30 13:23:00,33.4,22.4,30.01,ESE,113,1.7,7.6,64,0.00,,,0.00,WUHU216HW,2013-04-30 19:23:00,
2013-04-30 13:28:00,32.7,22.5,30.01,SE,135,3.3,7.6,66,0.00,,,0.00,WUHU216HW,2013-04-30 19:28:00,
2013-04-30 13:33:00,32.3,22.9,30.01,SE,135,4.9,5.8,69,0.00,,,0.00,WUHU216HW,2013-04-30 19:33:00,
2013-04-30 13:39:00,32.1,23.1,30.01,East,90,2.0,6.0,70,0.00,,,0.00,WUHU216HW,2013-04-30 19:39:00,
2013-04-30 13:44:00,31.8,23.1,30.01,ENE,68,2.4,6.0,70,0.00,,,0.00,WUHU216HW,2013-04-30 19:44:00,
2013-04-30 13:49:00,31.8,23.8,30.01,ENE,68,4.9,4.9,72,0.00,,,0.00,WUHU216HW,2013-04-30 19:49:00,
2013-04-30 13:54:00,31.8,24.4,30.02,ENE,68,7.1,9.6,74,0.00,,,0.00,WUHU216HW,2013-04-30 19:54:00,
2013-04-30 13:59:00,31.6,24.9,30.02,East,90,1.3,9.6,76,0.00,,,0.00,WUHU216HW,2013-04-30 19:59:00,
2013-04-30 14:04:00,31.2,24.9,30.02,East,90,5.1,6.2,77,0.00,,,0.00,WUHU216HW,2013-04-30 20:04:00,
2013-04-30 14:09:00,31.2,25.2,30.02,ESE,113,8.9,8.9,78,0.00,,,0.00,WUHU216HW,2013-04-30 20:09:00,
2013-04-30 14:14:00,31.2,25.5,30.03,East,90,4.2,8.9,79,0.00,,,0.00,WUHU216HW,2013-04-30 20:14:00,
2013-04-30 14:19:00,31.1,25.7,30.03,East,90,7.1,10.7,80,0.00,,,0.00,WUHU216HW,2013-04-30 20:19:00,
2013-04-30 14:24:00,31.1,25.7,30.03,NE,45,3.5,10.7,80,0.00,,,0.00,WUHU216HW,2013-04-30 20:24:00,
2013-04-30 14:29:00,31.1,25.5,30.03,NE,45,2.4,6.2,80,0.00,,,0.00,WUHU216HW,2013-04-30 20:29:00,
2013-04-30 14:35:00,31.1,25.7,30.03,NE,45,4.0,8.5,80,0.00,,,0.00,WUHU216HW,2013-04-30 20:35:00,
2013-04-30 14:40:00,31.1,25.7,30.03,ENE,68,0.0,12.0,80,0.00,,,0.00,WUHU216HW,2013-04-30 20:40:00,
2013-04-30 14:45:00,31.2,26.1,30.03,NE,45,2.4,13.1,81,0.00,,,0.00,WUHU216HW,2013-04-30 20:45:00,
2013-04-30 14:50:00,31.2,25.8,30.03,ENE,68,4.0,13.1,80,0.00,,,0.00,WUHU216HW,2013-04-30 20:50:00,
2013-04-30 14:55:00,31.6,26.2,30.04,ESE,113,5.3,8.7,80,0.00,,,0.00,WUHU216HW,2013-04-30 20:55:00,
2013-04-30 15:00:00,31.6,26.2,30.04,NNE,23,0.0,8.7,80,0.00,,,0.00,WUHU216HW,2013-04-30 21:00:00,
2013-04-30 15:05:00,31.8,26.0,30.04,East,90,6.4,6.4,79,0.00,,,0.00,WUHU216HW,2013-04-30 21:05:00,
2013-04-30 15:10:00,32.1,26.4,30.05,ESE,113,3.3,7.8,79,0.00,,,0.00,WUHU216HW,2013-04-30 21:10:00,
2013-04-30 15:15:00,32.1,26.1,30.05,ESE,113,4.0,7.8,78,0.00,,,0.00,WUHU216HW,2013-04-30 21:15:00,
2013-04-30 15:20:00,32.3,25.9,30.05,ENE,68,5.8,6.7,77,0.00,,,0.00,WUHU216HW,2013-04-30 21:20:00,
2013-04-30 15:26:00,32.5,26.1,30.05,ENE,68,4.2,6.7,77,0.00,,,0.00,WUHU216HW,2013-04-30 21:26:00,
2013-04-30 15:31:00,32.7,26.2,30.05,ENE,68,4.9,8.2,77,0.00,,,0.00,WUHU216HW,2013-04-30 21:31:00,
2013-04-30 15:36:00,32.7,25.9,30.06,East,90,0.0,8.2,76,0.00,,,0.00,WUHU216HW,2013-04-30 21:36:00,
2013-04-30 15:41:00,32.7,26.2,30.07,SSE,158,0.0,6.0,77,0.00,,,0.00,WUHU216HW,2013-04-30 21:41:00,
2013-04-30 15:46:00,32.7,25.9,30.07,ENE,68,2.0,7.6,76,0.00,,,0.00,WUHU216HW,2013-04-30 21:46:00,
2013-04-30 15:51:00,32.5,25.4,30.07,SSE,158,0.0,7.6,75,0.00,,,0.00,WUHU216HW,2013-04-30 21:51:00,
2013-04-30 15:56:00,32.3,25.4,30.07,SSE,158,1.7,5.5,75,0.00,,,0.00,WUHU216HW,2013-04-30 21:56:00,
2013-04-30 16:01:00,32.3,25.3,30.07,ESE,113,0.0,5.5,75,0.00,,,0.00,WUHU216HW,2013-04-30 22:01:00,
2013-04-30 16:06:00,32.1,25.4,30.08,SE,135,0.0,4.9,76,0.00,,,0.00,WUHU216HW,2013-04-30 22:06:00,
2013-04-30 16:12:00,32.1,25.4,30.08,SSE,158,5.3,5.3,76,0.00,,,0.00,WUHU216HW,2013-04-30 22:12:00,
2013-04-30 16:17:00,32.1,25.4,30.08,East,90,0.0,5.3,76,0.00,,,0.00,WUHU216HW,2013-04-30 22:17:00,
2013-04-30 16:22:00,31.8,25.1,30.08,SE,135,0.0,3.8,76,0.00,,,0.00,WUHU216HW,2013-04-30 22:22:00,
2013-04-30 16:27:00,31.8,25.4,30.08,SSE,158,0.0,2.6,77,0.00,,,0.00,WUHU216HW,2013-04-30 22:27:00,
2013-04-30 16:32:00,31.8,25.4,30.08,SSW,203,3.3,3.3,77,0.00,,,0.00,WUHU216HW,2013-04-30 22:32:00,
2013-04-30 16:37:00,31.6,25.2,30.09,SW,225,0.0,3.3,77,0.00,,,0.00,WUHU216HW,2013-04-30 22:37:00,
2013-04-30 16:42:00,31.4,25.0,30.09,SW,225,0.0,2.6,77,0.00,,,0.00,WUHU216HW,2013-04-30 22:42:00,
2013-04-30 16:47:00,31.2,25.2,30.09,WSW,248,0.0,1.3,77,0.00,,,0.00,WUHU216HW,2013-04-30 22:47:00,
2013-04-30 16:52:00,31.1,25.0,30.10,West,270,0.0,1.3,78,0.00,,,0.00,WUHU216HW,2013-04-30 22:52:00,
2013-04-30 16:57:00,30.7,24.6,30.10,WSW,248,0.0,0.0,78,0.00,,,0.00,WUHU216HW,2013-04-30 22:57:00,
2013-04-30 17:03:00,30.5,24.8,30.10,WNW,293,0.0,0.0,79,0.00,,,0.00,WUHU216HW,2013-04-30 23:03:00,
2013-04-30 17:08:00,30.3,24.6,30.10,WNW,293,0.0,0.0,79,0.00,,,0.00,WUHU216HW,2013-04-30 23:08:00,
2013-04-30 17:13:00,30.0,24.6,30.11,West,270,0.0,0.0,80,0.00,,,0.00,WUHU216HW,2013-04-30 23:13:00,
2013-04-30 17:18:00,30.0,24.4,30.11,WNW,293,0.0,0.0,81,0.00,,,0.00,WUHU216HW,2013-04-30 23:18:00,
2013-04-30 17:23:00,29.8,24.7,30.11,West,270,0.0,0.0,81,0.00,,,0.00,WUHU216HW,2013-04-30 23:23:00,
2013-04-30 17:28:00,29.6,24.5,30.11,West,270,0.0,0.0,81,0.00,,,0.00,WUHU216HW,2013-04-30 23:28:00,
2013-04-30 17:33:00,29.4,24.6,30.12,SW,225,0.0,0.0,82,0.00,,,0.00,WUHU216HW,2013-04-30 23:33:00,
2013-04-30 17:38:00,29.4,24.6,30.12,SW,225,0.0,0.0,82,0.00,,,0.00,WUHU216HW,2013-04-30 23:38:00,
2013-04-30 17:43:00,29.4,24.6,30.12,SW,225,0.0,0.0,82,0.00,,,0.00,WUHU216HW,2013-04-30 23:43:00,
2013-04-30 17:49:00,29.4,24.6,30.12,SW,225,0.0,0.0,82,0.00,,,0.00,WUHU216HW,2013-04-30 23:49:00,
2013-04-30 17:54:00,29.4,24.6,30.12,SW,225,0.0,0.0,82,0.00,,,0.00,WUHU216HW,2013-04-30 23:54:00,
2013-04-30 17:59:00,29.6,24.8,30.12,SW,225,0.0,0.0,82,0.00,,,0.00,WUHU216HW,2013-04-30 23:59:00,
2013-04-30 18:04:00,29.6,25.1,30.12,SW,225,0.0,0.0,83,0.00,,,0.00,WUHU216HW,2013-05-01 00:04:00,
2013-04-30 18:09:00,29.6,25.1,30.12,SW,225,0.0,0.0,83,0.00,,,0.00,WUHU216HW,2013-05-01 00:09:00,
2013-04-30 18:14:00,29.6,25.1,30.12,SW,225,0.0,0.0,83,0.00,,,0.00,WUHU216HW,2013-05-01 00:14:00,
2013-04-30 18:19:00,29.6,25.1,30.12,SW,225,0.0,0.0,83,0.00,,,0.00,WUHU216HW,2013-05-01 00:19:00,
2013-04-30 18:24:00,29.8,25.0,30.13,SW,225,0.0,0.0,82,0.00,,,0.00,WUHU216HW,2013-05-01 00:24:00,
2013-04-30 18:29:00,29.8,25.0,30.13,SW,225,0.0,0.0,82,0.00,,,0.00,WUHU216HW,2013-05-01 00:29:00,
2013-04-30 18:34:00,29.8,25.0,30.13,SSW,203,0.0,0.0,82,0.00,,,0.00,WUHU216HW,2013-05-01 00:34:00,
2013-04-30 18:39:00,30.0,25.1,30.13,SSW,203,0.0,0.0,82,0.00,,,0.00,WUHU216HW,2013-05-01 00:39:00,
2013-04-30 18:45:00,30.0,25.1,30.14,SSW,203,0.0,0.0,82,0.00,,,0.00,WUHU216HW,2013-05-01 00:45:00,
2013-04-30 18:50:00,30.0,25.1,30.14,SW,225,0.0,0.0,82,0.00,,,0.00,WUHU216HW,2013-05-01 00:50:00,
2013-04-30 18:55:00,30.0,25.3,30.14,SW,225,0.0,0.0,82,0.00,,,0.00,WUHU216HW,2013-05-01 00:55:00,
2013-04-30 19:00:00,30.2,25.3,30.14,SW,225,0.0,0.0,82,0.00,,,0.00,WUHU216HW,2013-05-01 01:00:00,
2013-04-30 19:05:00,30.2,25.3,30.14,SW,225,0.0,0.0,82,0.00,,,0.00,WUHU216HW,2013-05-01 01:05:00,
2013-04-30 19:10:00,30.3,25.3,30.14,SW,225,0.0,0.0,82,0.00,,,0.00,WUHU216HW,2013-05-01 01:10:00,
2013-04-30 19:15:00,30.3,25.5,30.15,SW,225,0.0,0.0,82,0.00,,,0.00,WUHU216HW,2013-05-01 01:15:00,
2013-04-30 19:20:00,30.3,25.5,30.15,SW,225,0.0,0.0,82,0.00,,,0.00,WUHU216HW,2013-05-01 01:20:00,
2013-04-30 19:25:00,30.5,25.7,30.15,SW,225,0.0,0.0,82,0.00,,,0.00,WUHU216HW,2013-05-01 01:25:00,
2013-04-30 19:30:00,30.7,25.9,30.15,SW,225,0.0,0.0,82,0.00,,,0.00,WUHU216HW,2013-05-01 01:30:00,
2013-04-30 19:35:00,30.7,25.9,30.15,SW,225,0.0,0.0,82,0.00,,,0.00,WUHU216HW,2013-05-01 01:35:00,
2013-04-30 19:40:00,30.7,25.9,30.15,SW,225,0.0,0.0,82,0.00,,,0.00,WUHU216HW,2013-05-01 01:40:00,
2013-04-30 19:45:00,30.9,26.0,30.15,SW,225,0.0,0.0,82,0.00,,,0.00,WUHU216HW,2013-05-01 01:45:00,
2013-04-30 19:50:00,30.7,25.9,30.15,SW,225,0.0,0.0,82,0.00,,,0.00,WUHU216HW,2013-05-01 01:50:00,
2013-04-30 19:55:00,30.9,26.0,30.15,SW,225,0.0,0.0,82,0.00,,,0.00,WUHU216HW,2013-05-01 01:55:00,
2013-04-30 20:01:00,30.7,25.9,30.16,SW,225,0.0,0.0,82,0.00,,,0.00,WUHU216HW,2013-05-01 02:01:00,
2013-04-30 20:06:00,30.7,25.6,30.15,SW,225,0.0,0.0,81,0.00,,,0.00,WUHU216HW,2013-05-01 02:06:00,
2013-04-30 20:11:00,30.3,25.2,30.16,SW,225,0.0,0.0,81,0.00,,,0.00,WUHU216HW,2013-05-01 02:11:00,
2013-04-30 20:16:00,30.0,24.9,30.16,SW,225,0.0,0.0,81,0.00,,,0.00,WUHU216HW,2013-05-01 02:16:00,
2013-04-30 20:21:00,29.8,24.7,30.16,SW,225,0.0,0.0,81,0.00,,,0.00,WUHU216HW,2013-05-01 02:21:00,
2013-04-30 20:26:00,29.4,24.6,30.16,SW,225,0.0,0.0,82,0.00,,,0.00,WUHU216HW,2013-05-01 02:26:00,
2013-04-30 20:31:00,29.1,24.0,30.16,SW,225,0.0,0.0,81,0.00,,,0.00,WUHU216HW,2013-05-01 02:31:00,
2013-04-30 20:36:00,28.9,24.1,30.17,SW,225,0.0,0.0,82,0.00,,,0.00,WUHU216HW,2013-05-01 02:36:00,
2013-04-30 20:41:00,28.5,23.7,30.16,SW,225,0.0,0.0,82,0.00,,,0.00,WUHU216HW,2013-05-01 02:41:00,
2013-04-30 20:46:00,28.4,23.5,30.16,SSW,203,0.0,0.0,82,0.00,,,0.00,WUHU216HW,2013-05-01 02:46:00,
2013-04-30 20:51:00,28.2,23.3,30.17,SW,225,0.0,0.0,82,0.00,,,0.00,WUHU216HW,2013-05-01 02:51:00,
2013-04-30 20:56:00,28.0,23.2,30.17,SSW,203,0.0,0.0,82,0.00,,,0.00,WUHU216HW,2013-05-01 02:56:00,
2013-04-30 21:01:00,27.8,23.0,30.17,SW,225,0.0,0.0,82,0.00,,,0.00,WUHU216HW,2013-05-01 03:01:00,
2013-04-30 21:06:00,27.6,22.8,30.17,SW,225,0.0,0.0,82,0.00,,,0.00,WUHU216HW,2013-05-01 03:06:00,
2013-04-30 21:11:00,27.5,22.6,30.17,SW,225,0.0,0.0,82,0.00,,,0.00,WUHU216HW,2013-05-01 03:11:00,
2013-04-30 21:16:00,27.5,22.6,30.17,SW,225,0.0,0.0,82,0.00,,,0.00,WUHU216HW,2013-05-01 03:16:00,
2013-04-30 21:21:00,27.3,22.4,30.18,SW,225,0.0,0.0,82,0.00,,,0.00,WUHU216HW,2013-05-01 03:21:00,
2013-04-30 21:26:00,27.1,22.3,30.19,SW,225,0.0,0.0,82,0.00,,,0.00,WUHU216HW,2013-05-01 03:26:00,
2013-04-30 21:31:00,27.1,22.6,30.19,SW,225,0.0,0.0,83,0.00,,,0.00,WUHU216HW,2013-05-01 03:31:00,
2013-04-30 21:37:00,27.1,22.6,30.19,SW,225,0.0,0.0,83,0.00,,,0.00,WUHU216HW,2013-05-01 03:37:00,
2013-04-30 21:42:00,26.9,22.4,30.19,SW,225,0.0,0.0,83,0.00,,,0.00,WUHU216HW,2013-05-01 03:42:00,
2013-04-30 21:47:00,26.7,22.2,30.19,SW,225,0.0,0.0,83,0.00,,,0.00,WUHU216HW,2013-05-01 03:47:00,
2013-04-30 21:52:00,26.6,22.0,30.19,SW,225,0.0,0.0,83,0.00,,,0.00,WUHU216HW,2013-05-01 03:52:00,
2013-04-30 21:57:00,26.4,21.8,30.19,SW,225,0.0,0.0,83,0.00,,,0.00,WUHU216HW,2013-05-01 03:57:00,
2013-04-30 22:01:00,26.4,21.8,30.20,SW,225,0.0,0.0,83,0.00,,,0.00,WUHU216HW,2013-05-01 04:01:00,
2013-04-30 22:02:00,26.4,21.8,30.20,SW,225,0.0,0.0,83,0.00,,,0.00,WUHU216HW,2013-05-01 04:02:00,
2013-04-30 22:03:00,26.4,21.8,30.20,SW,225,0.0,0.0,83,0.00,,,0.00,WUHU216HW,2013-05-01 04:03:00,
2013-04-30 22:08:00,26.2,22.0,30.20,SW,225,0.0,0.0,84,0.00,,,0.00,WUHU216HW,2013-05-01 04:08:00,
2013-04-30 22:13:00,26.2,22.0,30.20,SW,225,0.0,0.0,84,0.00,,,0.00,WUHU216HW,2013-05-01 04:13:00,
2013-04-30 22:18:00,26.0,21.8,30.20,SW,225,0.0,0.0,84,0.00,,,0.00,WUHU216HW,2013-05-01 04:18:00,
2013-04-30 22:23:00,26.0,21.8,30.20,SW,225,0.0,0.0,84,0.00,,,0.00,WUHU216HW,2013-05-01 04:23:00,
2013-04-30 22:28:00,25.8,21.6,30.21,SW,225,0.0,0.0,84,0.00,,,0.00,WUHU216HW,2013-05-01 04:28:00,
2013-04-30 22:34:00,25.8,21.6,30.21,SW,225,0.0,0.0,84,0.00,,,0.00,WUHU216HW,2013-05-01 04:34:00,
2013-04-30 22:39:00,25.8,21.6,30.21,SW,225,0.0,0.0,84,0.00,,,0.00,WUHU216HW,2013-05-01 04:39:00,
2013-04-30 22:44:00,25.8,21.6,30.21,SW,225,0.0,0.0,84,0.00,,,0.00,WUHU216HW,2013-05-01 04:44:00,
2013-04-30 22:49:00,25.8,21.6,30.21,SW,225,0.0,0.0,84,0.00,,,0.00,WUHU216HW,2013-05-01 04:49:00,
2013-04-30 22:54:00,26.0,21.8,30.21,SW,225,0.0,0.0,84,0.00,,,0.00,WUHU216HW,2013-05-01 04:54:00,
2013-04-30 22:59:00,26.2,22.2,30.21,SW,225,0.0,0.0,85,0.00,,,0.00,WUHU216HW,2013-05-01 04:59:00,
2013-04-30 23:04:00,26.2,22.2,30.21,SW,225,0.0,0.0,85,0.00,,,0.00,WUHU216HW,2013-05-01 05:04:00,
2013-04-30 23:09:00,26.2,22.2,30.21,SW,225,0.0,0.0,85,0.00,,,0.00,WUHU216HW,2013-05-01 05:09:00,
2013-04-30 23:14:00,25.8,21.6,30.22,SW,225,0.0,0.0,84,0.00,,,0.00,WUHU216HW,2013-05-01 05:14:00,
2013-04-30 23:19:00,25.8,21.6,30.22,SW,225,0.0,0.0,84,0.00,,,0.00,WUHU216HW,2013-05-01 05:19:00,
2013-04-30 23:24:00,25.5,21.3,30.22,SW,225,0.0,0.0,84,0.00,,,0.00,WUHU216HW,2013-05-01 05:24:00,
2013-04-30 23:29:00,25.5,21.3,30.22,SW,225,0.0,0.0,84,0.00,,,0.00,WUHU216HW,2013-05-01 05:29:00,
2013-04-30 23:34:00,25.3,21.1,30.22,SW,225,0.0,0.0,84,0.00,,,0.00,WUHU216HW,2013-05-01 05:34:00,
2013-04-30 23:39:00,25.3,20.9,30.22,SW,225,0.0,0.0,84,0.00,,,0.00,WUHU216HW,2013-05-01 05:39:00,
2013-04-30 23:44:00,24.9,20.8,30.23,SW,225,0.0,0.0,84,0.00,,,0.00,WUHU216HW,2013-05-01 05:44:00,
2013-04-30 23:50:00,24.9,20.8,30.22,SW,225,0.0,0.0,84,0.00,,,0.00,WUHU216HW,2013-05-01 05:50:00,
2013-04-30 23:55:00,24.9,20.8,30.23,SW,225,0.0,0.0,84,0.00,,,0.00,WUHU216HW,2013-05-01 05:55:00,